Rainham, United Kingdom
Current Conditions -  °F | °C
As of 9:20 PM on Thursday 18 Dec 2014 (Local Time) from EGLC Reporting Station
Broken Clouds Broken Clouds  
Wind Chill: 55°   Ceiling: 1300
Heat Index: 55°   Visibility: 6mi
Dew Point: 50°   Wind: 22mph
Humidity: 82%   Direction: 250°WSW
Pressure: 29.83"   Gusts: NA
Location:  51.53°N, 0.19°E
Report Text: EGLC 182120Z 25019KT 9999 BKN013 13/10 Q1010
Loading
Personal Weather Stations






























Interactive Weather Map New forecast layout! Learn more

10-Day Weather Forecast

Advertisements
Track Severe Weather on mobile